メインページ
METAR-TAF:

METAR-TAF

空港 :

ウィルクスバリ / スクラントン, ペンシルバニア州, アメリカ合衆国

緯度: 41-20-20N, 経度: 075-43-36W, 海抜: 293m

現時点の気象観測

当レポートは36分前の17:54(UTC)に作成
変向風 3kt
気温 31°C
湿度 43%
気圧 1021 hPa
視程: 16.1km
晴天

METAR: KAVP 261754Z VRB03KT 10SM CLR 31/17 A3016 RMK AO2 SLP202 T03110172 10311 20206 58015

時間: 14:30 (18:30 UTC)

予報

当レポートは1時間10分前の17:20(UTC)に作成
予報は26日の 18時(UTC)から 27日の 18時(UTC)まで有効
変向風 4kt
視程: 10km
高度24000ftの雲は散在している
27日の 1100時(UTC)から
の風 kt
視程: 10km
高度2500ftの千切れ雲あり
27日の 1700時(UTC)から
の風 5kt
視程: 10km
高度6000ftの千切れ雲あり

TAF: KAVP 261720Z 2618/2718 VRB04KT P6SM SCT240 FM271100 00000KT P6SM BKN025 FM271700 19005KT P6SM BKN060

4,000以上の空港の気象観測と天気予報(METAR報とTAF報)

利用可能な観測所は地図上に黄色い丸と赤い丸で示す。

丸の上にカーソルを重ねると観測所名を参照できる。

次にクリックすると気象観測と天気予報を参照できる。

マップの切り替え:黒色「×」印の緑ボタンをクリックして拡大、「-」印の緑ボタンをクリックして縮小、緑色の三角印をクリックして隣りの地図に切り替え


METAR-TAF: